Wichita, KS (67227)

1:40 AM CST on December 20, 2014 (GMT -0600)
Southwest Wichita | Change Station
CLOSE
Current Station
Personal Weather Station
Location: Wichita, KS
Elevation: 1301 ft
Nearby Weather Stations

Elev 1301 ft 37.58 °N, 97.40 °W | Updated 35 seconds ago

Overcast
Overcast
37.3 °F
Feels Like 34 °F
N
4.0
Wind Variable Wind from ESE
Gusts 5.0 mph

Today
High -- | Low -- °F
--% Chance of Precip.
Yesterday
High -- | Low -- °F
Precip. -- in
7:40 AM 5:14 PM
Waning Crescent, 4% visible
Pressure 30.20 in
Visibility 8.0 miles
Clouds Overcast 2000 ft
Windchill 34 °F
Dew Point 34 °F
Humidity 87%
Rainfall 0.00 in
Snow Depth Not available.
UV 0.0 out of 12
Pollen .10 out of 12
Air Quality Not available.
Flu Activity Not available.
METAR KICT 200653Z 17008KT 8SM OVC020 03/01 A3017 RMK AO2 SLP225 T00330011

More Conditions Fewer Conditions

Pressure 30.20 in
Visibility 8.0 miles
Clouds Overcast 2000 ft
Windchill 34 °F
Dew Point 34 °F
Humidity 87%
Rainfall 0.00 in
Snow Depth Not available.
UV 0.0 out of 12
Pollen .10 out of 12
Air Quality Not available.
Flu Activity Not available.
METAR KICT 200653Z 17008KT 8SM OVC020 03/01 A3017 RMK AO2 SLP225 T00330011

More Conditions Fewer Conditions

10-Day Weather Forecast

Almanac

Astronomy

Dec. 20, 2014 Rise Set
Actual Time
Civil Twilight
Nautical Twilight
Astronomical Twilight
Moon
Length of Visible Light
Length of Day
Tomorrow will be .
, % of the Moon is Illuminated

Today's Extremes

State Highs State Lows

Community

WunderPhotos

Upload Photos

1,779,146 photos uploaded!

WunderBlogs® & News

Nearby

Air Quality

  Air Quality AQ Index Pollutant
Not available.

Snow Depth

Station Depth Elevation

Earthquake Activity

City Distance Mag. Time & Date
Minimum magnitude displayed is 2.5.

Coastal Water Temperatures

Place Temperature

Nearby Weather Stations